Time;durP1;ratioP1;P1;durP2;ratioP2;P2;SDS_P1;SDS_P2;PMS_P1;PMS_P2;Temp;Humidity;BMP_temperature;BMP_pressure;BME280_temperature;BME280_humidity;BME280_pressure;Samples;Min_cycle;Max_cycle;Signal;HPM_P1;HPM_P2
2022/03/21 00:01:55;;;;;;;29.08;16.92;;;9.30;99.90;;;;;;5056116;28;20104;-70
2022/03/21 00:04:22;;;;;;;30.08;17.98;;;9.30;99.90;;;;;;5055758;28;20444;-71
2022/03/21 00:06:47;;;;;;;27.50;18.52;;;9.20;99.90;;;;;;5055585;28;20041;-70
2022/03/21 00:09:13;;;;;;;31.13;18.88;;;9.30;99.90;;;;;;5055653;28;20386;-71
2022/03/21 00:11:39;;;;;;;34.75;17.98;;;9.30;99.90;;;;;;5055913;28;20074;-71
2022/03/21 00:14:05;;;;;;;31.42;17.58;;;9.40;99.90;;;;;;5056104;28;20029;-70
2022/03/21 00:16:31;;;;;;;27.77;16.98;;;9.40;99.90;;;;;;5037677;28;20017;-70
2022/03/21 00:18:56;;;;;;;31.85;17.95;;;9.50;99.90;;;;;;5055806;28;20028;-71
2022/03/21 00:21:22;;;;;;;28.08;17.40;;;9.50;99.90;;;;;;5055749;28;20025;-71
2022/03/21 00:23:48;;;;;;;27.05;17.27;;;9.70;99.90;;;;;;5055714;28;20029;-70
2022/03/21 00:26:15;;;;;;;32.83;18.23;;;9.70;99.90;;;;;;5055468;28;20029;-70
2022/03/21 00:28:41;;;;;;;29.67;18.55;;;9.60;99.90;;;;;;5055591;28;20029;-70
2022/03/21 00:31:07;;;;;;;28.73;17.58;;;9.60;99.90;;;;;;5055317;28;20028;-71
2022/03/21 00:33:33;;;;;;;33.08;17.50;;;9.60;99.90;;;;;;5055254;28;20017;-70
2022/03/21 00:35:59;;;;;;;31.27;16.50;;;9.50;99.90;;;;;;5055479;28;20070;-71
2022/03/21 00:38:26;;;;;;;28.58;17.17;;;9.60;99.90;;;;;;5055129;28;20531;-70
2022/03/21 00:40:52;;;;;;;28.80;17.20;;;9.60;99.90;;;;;;5055085;28;20017;-70
2022/03/21 00:43:22;;;;;;;30.88;17.33;;;9.50;99.90;;;;;;5055043;28;20033;-71
2022/03/21 00:45:52;;;;;;;25.58;17.00;;;9.50;99.90;;;;;;5055037;28;20489;-71
2022/03/21 00:48:18;;;;;;;26.23;16.38;;;9.50;99.90;;;;;;5054917;28;20527;-70
2022/03/21 00:50:44;;;;;;;30.05;17.50;;;9.50;99.90;;;;;;5054916;28;20028;-70
2022/03/21 00:53:10;;;;;;;30.58;18.42;;;9.60;99.90;;;;;;5055437;28;20112;-71
2022/03/21 00:55:36;;;;;;;28.20;17.17;;;9.60;99.90;;;;;;5054021;28;20096;-70
2022/03/21 00:58:02;;;;;;;28.15;17.63;;;9.60;99.90;;;;;;5054814;28;20539;-71
2022/03/21 01:00:30;;;;;;;30.05;16.58;;;9.50;99.90;;;;;;5054774;28;20552;-70
2022/03/21 01:02:58;;;;;;;29.65;17.55;;;9.30;99.90;;;;;;5054636;28;20040;-70
2022/03/21 01:05:23;;;;;;;28.85;17.92;;;9.30;99.90;;;;;;5054433;28;20060;-71
2022/03/21 01:07:50;;;;;;;28.98;16.92;;;9.20;99.90;;;;;;5054547;28;20466;-70
2022/03/21 01:10:18;;;;;;;27.60;16.10;;;9.10;99.90;;;;;;5054553;28;20021;-71
2022/03/21 01:12:46;;;;;;;28.33;17.17;;;9.10;99.90;;;;;;5054780;28;20033;-71
2022/03/21 01:15:16;;;;;;;28.55;18.10;;;9.20;99.90;;;;;;5054731;28;20017;-70
2022/03/21 01:17:42;;;;;;;33.10;17.95;;;9.20;99.90;;;;;;5054687;28;20039;-70
2022/03/21 01:20:09;;;;;;;31.50;17.52;;;9.20;99.90;;;;;;5054622;28;20452;-70
2022/03/21 01:22:35;;;;;;;27.35;16.38;;;9.10;99.90;;;;;;5054353;28;20442;-70
2022/03/21 01:25:02;;;;;;;29.10;16.42;;;9.20;99.90;;;;;;5036421;28;20064;-70
2022/03/21 01:27:29;;;;;;;29.08;17.23;;;9.20;99.90;;;;;;5054128;28;20029;-71
2022/03/21 01:29:55;;;;;;;27.40;16.33;;;9.20;99.90;;;;;;5054720;28;20373;-71
2022/03/21 01:32:21;;;;;;;25.58;17.13;;;9.20;99.90;;;;;;5054131;28;20025;-71
2022/03/21 01:34:46;;;;;;;27.88;17.20;;;9.10;99.90;;;;;;5054101;28;20025;-71
2022/03/21 01:37:13;;;;;;;25.40;15.90;;;9.00;99.90;;;;;;5054622;28;20029;-70
2022/03/21 01:39:38;;;;;;;28.63;16.35;;;9.00;99.90;;;;;;5054225;28;20021;-70
2022/03/21 01:42:04;;;;;;;30.27;17.10;;;9.00;99.90;;;;;;5053913;28;20056;-70
2022/03/21 01:44:30;;;;;;;32.45;16.70;;;9.10;99.90;;;;;;5053901;28;20413;-70
2022/03/21 01:46:56;;;;;;;31.98;17.63;;;9.10;99.90;;;;;;5053853;28;20115;-70
2022/03/21 01:49:21;;;;;;;28.65;16.75;;;9.10;99.90;;;;;;5053726;28;20107;-70
2022/03/21 01:51:47;;;;;;;28.95;17.42;;;9.00;99.90;;;;;;5053772;28;20055;-71
2022/03/21 01:56:58;;;;;;;28.75;17.70;;;9.00;99.90;;;;;;5054002;28;20092;-70
2022/03/21 01:59:25;;;;;;;28.90;18.10;;;8.80;99.90;;;;;;5053892;28;20025;-71
2022/03/21 02:01:51;;;;;;;30.33;17.70;;;8.70;99.90;;;;;;5053897;28;20021;-71
2022/03/21 02:04:17;;;;;;;28.17;16.77;;;8.60;99.90;;;;;;5053681;28;20033;-70
2022/03/21 02:06:43;;;;;;;29.48;16.77;;;8.60;99.90;;;;;;5053382;28;20053;-70
2022/03/21 02:09:09;;;;;;;30.23;18.35;;;8.50;99.90;;;;;;5053398;28;20025;-71
2022/03/21 02:11:36;;;;;;;29.17;17.02;;;8.50;99.90;;;;;;5054004;28;20083;-70
2022/03/21 02:14:03;;;;;;;28.80;17.13;;;8.40;99.90;;;;;;5053966;28;20021;-70
2022/03/21 02:16:31;;;;;;;30.35;18.27;;;8.40;99.90;;;;;;5053355;28;20112;-70
2022/03/21 02:19:30;;;;;;;28.13;17.48;;;8.30;99.90;;;;;;5053582;28;20056;-70
2022/03/21 02:22:11;;;;;;;30.33;17.25;;;8.30;99.90;;;;;;5049906;28;20037;-70
2022/03/21 02:24:46;;;;;;;32.38;17.98;;;8.20;99.90;;;;;;5053531;28;20025;-70
2022/03/21 02:27:12;;;;;;;30.25;17.40;;;8.30;99.90;;;;;;5053285;28;20032;-70
2022/03/21 02:29:40;;;;;;;27.55;15.70;;;8.30;99.90;;;;;;5053154;28;20493;-70
2022/03/21 02:32:07;;;;;;;31.38;17.90;;;8.30;99.90;;;;;;5053167;28;20024;-70
2022/03/21 02:34:37;;;;;;;28.40;16.40;;;8.30;99.90;;;;;;5053225;28;20362;-70
2022/03/21 02:37:04;;;;;;;38.38;19.08;;;8.40;99.90;;;;;;5053158;28;20032;-70
2022/03/21 02:39:30;;;;;;;28.88;16.55;;;8.30;99.90;;;;;;5053078;28;20051;-71
2022/03/21 02:41:56;;;;;;;32.13;17.58;;;8.30;99.90;;;;;;5053097;28;20107;-71
2022/03/21 02:44:22;;;;;;;34.80;18.52;;;8.30;99.90;;;;;;5053358;28;20384;-70
2022/03/21 02:46:48;;;;;;;28.33;16.65;;;8.30;99.90;;;;;;5053034;28;20037;-71
2022/03/21 02:49:15;;;;;;;28.73;17.25;;;8.30;99.90;;;;;;5053248;28;20029;-70
2022/03/21 02:51:42;;;;;;;29.33;18.75;;;8.20;99.90;;;;;;5052948;28;20059;-70
2022/03/21 02:54:09;;;;;;;30.75;18.00;;;8.10;99.90;;;;;;5053013;28;20092;-70
2022/03/21 02:56:35;;;;;;;31.73;17.60;;;8.10;99.90;;;;;;5053424;28;20031;-70
2022/03/21 02:59:01;;;;;;;31.15;18.63;;;8.10;99.90;;;;;;5053218;28;20083;-70
2022/03/21 03:01:27;;;;;;;33.88;18.00;;;8.10;99.90;;;;;;5052878;28;20029;-70
2022/03/21 03:03:53;;;;;;;29.25;18.30;;;8.00;99.90;;;;;;5052883;28;20416;-70
2022/03/21 03:06:19;;;;;;;28.38;17.88;;;8.10;99.90;;;;;;5052681;28;20060;-70
2022/03/21 03:08:44;;;;;;;32.92;16.92;;;8.10;99.90;;;;;;5052701;28;20393;-70
2022/03/21 03:11:11;;;;;;;27.73;17.67;;;8.10;99.90;;;;;;5052804;28;20025;-70
2022/03/21 03:13:37;;;;;;;30.38;18.23;;;8.00;99.90;;;;;;5053289;28;20018;-70
2022/03/21 03:16:03;;;;;;;30.55;17.58;;;7.90;99.90;;;;;;5052733;28;20027;-70
2022/03/21 03:18:29;;;;;;;29.98;18.45;;;7.90;99.90;;;;;;5054467;28;20106;-70
2022/03/21 03:20:57;;;;;;;28.67;17.10;;;7.90;99.90;;;;;;5056654;28;20064;-70
2022/03/21 03:23:24;;;;;;;31.45;16.95;;;7.90;99.90;;;;;;5056616;28;20393;-70
2022/03/21 03:25:58;;;;;;;29.92;17.40;;;8.00;99.90;;;;;;5056593;28;20025;-70
2022/03/21 03:28:24;;;;;;;29.02;17.85;;;8.00;99.90;;;;;;5038288;28;20025;-70
2022/03/21 03:30:51;;;;;;;27.50;17.55;;;8.00;99.90;;;;;;5056695;28;20024;-71
2022/03/21 03:33:17;;;;;;;33.30;18.92;;;8.00;99.90;;;;;;5056636;28;20021;-70
2022/03/21 03:35:42;;;;;;;31.83;19.38;;;8.00;99.90;;;;;;5056355;28;20032;-70
2022/03/21 03:38:08;;;;;;;31.42;18.05;;;8.00;99.90;;;;;;5056288;28;20485;-70
2022/03/21 03:40:34;;;;;;;31.50;18.30;;;8.00;99.90;;;;;;5056287;28;20116;-70
2022/03/21 03:43:00;;;;;;;32.17;19.90;;;8.10;99.90;;;;;;5056238;28;20049;-71
2022/03/21 03:45:26;;;;;;;29.73;18.00;;;8.00;99.90;;;;;;5056185;28;20512;-70
2022/03/21 03:47:52;;;;;;;34.80;18.50;;;7.90;99.90;;;;;;5056024;28;20021;-70
2022/03/21 03:50:18;;;;;;;27.80;17.45;;;8.00;99.90;;;;;;5056163;28;20021;-71
2022/03/21 03:52:47;;;;;;;27.35;18.17;;;8.00;99.90;;;;;;5055996;28;20079;-70
2022/03/21 03:55:19;;;;;;;32.50;18.42;;;8.00;99.90;;;;;;5056322;28;20079;-70
2022/03/21 03:57:45;;;;;;;33.25;19.70;;;8.00;99.90;;;;;;5055896;28;20029;-70
2022/03/21 04:00:13;;;;;;;30.55;18.92;;;7.90;99.90;;;;;;5055866;28;20104;-70
2022/03/21 04:05:23;;;;;;;33.95;19.17;;;7.90;99.90;;;;;;5055922;28;20055;-70
2022/03/21 04:07:50;;;;;;;32.03;19.27;;;7.70;99.90;;;;;;5055631;28;20021;-70
2022/03/21 04:10:16;;;;;;;30.70;18.25;;;7.60;99.90;;;;;;5055723;28;20072;-70
2022/03/21 04:12:43;;;;;;;32.55;18.60;;;7.70;99.90;;;;;;5055674;28;20461;-70
2022/03/21 04:15:10;;;;;;;30.77;18.15;;;7.70;99.90;;;;;;5055634;28;20013;-71
2022/03/21 04:17:36;;;;;;;30.48;18.95;;;7.80;99.90;;;;;;5056140;28;20017;-70
2022/03/21 04:20:02;;;;;;;30.38;18.95;;;7.80;99.90;;;;;;5037722;28;20017;-71
2022/03/21 04:22:28;;;;;;;28.70;17.50;;;7.80;99.90;;;;;;5055464;28;20028;-71
2022/03/21 04:24:54;;;;;;;28.27;17.38;;;7.80;99.90;;;;;;5055481;28;20104;-70
2022/03/21 04:27:20;;;;;;;30.70;18.25;;;7.70;99.90;;;;;;5055416;28;20017;-71
2022/03/21 04:29:45;;;;;;;31.10;18.67;;;7.80;99.90;;;;;;5054096;28;20025;-70
2022/03/21 04:32:11;;;;;;;32.60;18.40;;;7.70;99.90;;;;;;5055877;28;20096;-70
2022/03/21 04:34:37;;;;;;;33.47;18.70;;;7.80;99.90;;;;;;5055520;28;20025;-70
2022/03/21 04:37:02;;;;;;;30.65;17.80;;;7.70;99.90;;;;;;5055510;28;20017;-70
2022/03/21 04:39:28;;;;;;;33.92;18.67;;;7.60;99.90;;;;;;5055425;28;20029;-70
2022/03/21 04:41:54;;;;;;;29.80;17.88;;;7.60;99.90;;;;;;5055656;28;20033;-71
2022/03/21 04:44:20;;;;;;;31.48;17.95;;;7.60;99.90;;;;;;5055080;28;20025;-70
2022/03/21 04:46:45;;;;;;;31.17;18.33;;;7.50;99.90;;;;;;5055314;28;20025;-70
2022/03/21 04:49:11;;;;;;;31.35;18.58;;;7.60;99.90;;;;;;5055168;28;20078;-70
2022/03/21 04:51:37;;;;;;;31.58;18.10;;;7.60;99.90;;;;;;5054956;28;20018;-70
2022/03/21 04:54:03;;;;;;;34.97;19.00;;;7.60;99.90;;;;;;5054946;28;20393;-70
2022/03/21 04:56:28;;;;;;;33.65;18.02;;;7.50;99.90;;;;;;5054790;28;20023;-70
2022/03/21 04:58:54;;;;;;;30.27;18.92;;;7.50;99.90;;;;;;5054832;28;20033;-71
2022/03/21 05:01:20;;;;;;;32.63;17.95;;;7.40;99.90;;;;;;5054757;28;20509;-70
2022/03/21 05:03:46;;;;;;;31.95;18.35;;;7.40;99.90;;;;;;5054736;28;20032;-71
2022/03/21 05:06:12;;;;;;;34.92;20.33;;;7.50;99.90;;;;;;5054590;28;20095;-70
2022/03/21 05:08:38;;;;;;;33.63;19.00;;;7.50;99.90;;;;;;5054506;28;20465;-70
2022/03/21 05:11:03;;;;;;;34.15;18.52;;;7.50;99.90;;;;;;5054535;28;20096;-70
2022/03/21 05:13:29;;;;;;;29.65;18.98;;;7.50;99.90;;;;;;5054485;28;20054;-70
2022/03/21 05:15:55;;;;;;;37.60;19.15;;;7.50;99.90;;;;;;5054425;28;20025;-70
2022/03/21 05:18:22;;;;;;;30.73;18.77;;;7.40;99.90;;;;;;5054435;28;20035;-71
2022/03/21 05:20:48;;;;;;;30.48;18.27;;;7.40;99.90;;;;;;5054351;28;20094;-70
2022/03/21 05:31:27;;;;;;;33.80;18.92;;;7.20;99.90;;;;;;5054435;28;20028;-70
2022/03/21 05:36:37;;;;;;;30.05;18.60;;;7.20;99.90;;;;;;5054119;28;20071;-70
2022/03/21 05:39:03;;;;;;;32.53;19.35;;;7.10;99.90;;;;;;5054306;28;20029;-70
2022/03/21 05:41:29;;;;;;;32.42;18.98;;;7.00;99.90;;;;;;5053932;28;20094;-70
2022/03/21 05:43:55;;;;;;;34.30;18.60;;;7.00;99.90;;;;;;5053885;28;20470;-70
2022/03/21 05:46:21;;;;;;;32.85;18.33;;;7.10;99.90;;;;;;5053841;28;20473;-70
2022/03/21 05:48:50;;;;;;;32.90;19.10;;;7.10;99.90;;;;;;5053778;28;20029;-70
2022/03/21 05:51:17;;;;;;;30.70;19.13;;;7.10;99.90;;;;;;5054061;28;20035;-70
2022/03/21 05:53:45;;;;;;;34.55;18.80;;;7.10;99.90;;;;;;5053758;28;20036;-70
2022/03/21 05:56:11;;;;;;;34.83;19.55;;;7.10;99.90;;;;;;5053683;28;20013;-70
2022/03/21 05:58:37;;;;;;;35.17;19.15;;;7.10;99.90;;;;;;5053992;28;20044;-71
2022/03/21 06:01:04;;;;;;;33.97;19.58;;;7.10;99.90;;;;;;5053615;28;20025;-71
2022/03/21 06:03:30;;;;;;;34.00;18.88;;;7.10;99.90;;;;;;5053925;28;20108;-70
2022/03/21 06:05:59;;;;;;;35.38;18.92;;;7.10;99.90;;;;;;5053702;28;20076;-70
2022/03/21 06:08:25;;;;;;;33.80;20.05;;;7.10;99.90;;;;;;5053463;28;20035;-71
2022/03/21 06:11:03;;;;;;;30.13;18.10;;;7.10;99.90;;;;;;5053484;28;20488;-71
2022/03/21 06:13:33;;;;;;;32.58;19.02;;;7.10;99.90;;;;;;5053461;28;20025;-71
2022/03/21 06:16:06;;;;;;;32.83;18.75;;;7.00;99.90;;;;;;5053461;28;20025;-70
2022/03/21 06:18:33;;;;;;;30.17;18.00;;;7.10;99.90;;;;;;5053942;28;20029;-71
2022/03/21 06:21:00;;;;;;;30.70;18.17;;;7.20;99.90;;;;;;5053344;28;20025;-70
2022/03/21 06:23:26;;;;;;;32.80;18.20;;;7.20;99.90;;;;;;5053290;28;20043;-70
2022/03/21 06:25:56;;;;;;;30.95;17.88;;;7.20;99.90;;;;;;5053895;28;20025;-70
2022/03/21 06:28:22;;;;;;;32.38;17.33;;;7.30;99.90;;;;;;5053224;28;20052;-70
2022/03/21 06:30:51;;;;;;;35.40;18.20;;;7.50;99.90;;;;;;5053182;28;20498;-70
2022/03/21 06:33:17;;;;;;;25.60;16.40;;;7.50;99.90;;;;;;5053133;28;20032;-70
2022/03/21 06:35:43;;;;;;;27.10;17.38;;;7.60;99.90;;;;;;5053178;28;20032;-70
2022/03/21 06:38:10;;;;;;;26.52;16.23;;;7.70;99.90;;;;;;5053138;28;20031;-71
2022/03/21 06:40:37;;;;;;;28.70;17.15;;;7.80;99.90;;;;;;5053120;28;20017;-70
2022/03/21 06:43:03;;;;;;;27.08;16.05;;;7.90;99.90;;;;;;5053108;28;20028;-70
2022/03/21 06:45:29;;;;;;;38.20;19.40;;;8.00;99.90;;;;;;5053051;28;20389;-71
2022/03/21 06:47:54;;;;;;;29.77;16.88;;;8.20;99.90;;;;;;5053218;28;20037;-70
2022/03/21 06:50:20;;;;;;;31.08;16.63;;;8.30;99.90;;;;;;5053333;28;20021;-71
2022/03/21 06:52:46;;;;;;;25.92;15.05;;;8.50;99.90;;;;;;5053911;28;20029;-70
2022/03/21 06:55:12;;;;;;;26.77;15.55;;;8.60;99.90;;;;;;5039189;28;20106;-70
2022/03/21 06:57:41;;;;;;;26.88;15.13;;;8.80;99.90;;;;;;5057063;28;20025;-70
2022/03/21 07:00:08;;;;;;;25.10;15.52;;;8.90;99.90;;;;;;5056756;28;20075;-70
2022/03/21 07:02:34;;;;;;;24.85;15.70;;;9.10;99.90;;;;;;5057583;28;20029;-71
2022/03/21 07:05:00;;;;;;;22.52;14.60;;;9.30;99.90;;;;;;5057039;28;20067;-71
2022/03/21 07:07:27;;;;;;;24.40;13.93;;;9.40;99.90;;;;;;5056877;28;20045;-70
2022/03/21 07:09:53;;;;;;;25.17;13.82;;;9.60;99.90;;;;;;5057335;28;20028;-70
2022/03/21 07:12:19;;;;;;;22.13;13.82;;;9.70;99.90;;;;;;5038909;28;20029;-71
2022/03/21 07:14:46;;;;;;;22.23;14.32;;;9.90;99.90;;;;;;5056764;28;20078;-70
2022/03/21 07:17:12;;;;;;;21.52;13.27;;;10.10;99.90;;;;;;5038838;28;20032;-70
2022/03/21 07:19:37;;;;;;;19.55;12.45;;;10.30;99.90;;;;;;5056964;28;20546;-70
2022/03/21 07:22:04;;;;;;;20.50;12.95;;;10.40;99.90;;;;;;5056907;28;20406;-70
2022/03/21 07:24:29;;;;;;;23.73;13.10;;;10.50;99.90;;;;;;5056607;28;20029;-70
2022/03/21 07:26:55;;;;;;;25.27;13.52;;;10.70;99.90;;;;;;5057099;28;20033;-71
2022/03/21 07:29:22;;;;;;;22.70;13.25;;;10.90;99.90;;;;;;5056691;28;20025;-71
2022/03/21 07:31:47;;;;;;;21.63;12.20;;;11.00;99.90;;;;;;5056687;28;20025;-71
2022/03/21 07:34:14;;;;;;;19.65;12.10;;;11.10;99.90;;;;;;5056656;28;20462;-70
2022/03/21 07:36:40;;;;;;;17.63;11.50;;;11.40;99.90;;;;;;5056380;28;20504;-70
2022/03/21 07:39:05;;;;;;;19.80;12.90;;;11.50;99.90;;;;;;5056279;28;20025;-71
2022/03/21 07:41:31;;;;;;;18.30;11.45;;;11.70;99.90;;;;;;5056504;28;20071;-71
2022/03/21 07:43:58;;;;;;;18.98;11.00;;;11.90;99.90;;;;;;5056236;28;20021;-71
2022/03/21 07:49:10;;;;;;;15.18;9.30;;;12.40;99.90;;;;;;5056496;28;20074;-71
2022/03/21 07:51:35;;;;;;;15.63;9.70;;;12.60;99.90;;;;;;5056634;28;20076;-71
2022/03/21 07:54:02;;;;;;;15.35;9.32;;;12.90;99.90;;;;;;5056059;28;20477;-71
2022/03/21 07:56:28;;;;;;;14.55;8.70;;;13.10;99.90;;;;;;5055941;28;20461;-70
2022/03/21 07:58:54;;;;;;;14.75;9.15;;;13.40;99.90;;;;;;5054987;28;20029;-71
2022/03/21 08:01:20;;;;;;;15.45;9.00;;;13.60;99.90;;;;;;5036980;28;20094;-70
2022/03/21 08:03:46;;;;;;;11.73;7.53;;;14.30;99.90;;;;;;5055048;28;20032;-70
2022/03/21 08:06:12;;;;;;;11.75;7.75;;;17.40;99.90;;;;;;5055606;28;20057;-71
2022/03/21 08:08:38;;;;;;;10.20;6.88;;;20.10;99.90;;;;;;5055666;28;20048;-72
2022/03/21 08:11:05;;;;;;;11.80;7.68;;;22.10;99.60;;;;;;5055873;28;20057;-72
2022/03/21 08:13:31;;;;;;;12.70;7.65;;;23.50;96.70;;;;;;5055118;28;20035;-72
2022/03/21 08:15:57;;;;;;;11.75;7.20;;;24.70;93.70;;;;;;5055678;28;20032;-69
2022/03/21 08:18:23;;;;;;;12.02;6.65;;;25.70;89.30;;;;;;5055161;28;20025;-72
2022/03/21 08:20:48;;;;;;;9.48;6.53;;;26.10;84.30;;;;;;5055168;28;20033;-78
2022/03/21 08:23:14;;;;;;;10.02;6.95;;;25.80;80.90;;;;;;5055843;28;20448;-73
2022/03/21 08:25:48;;;;;;;9.80;6.93;;;26.30;78.60;;;;;;5037501;28;20551;-70
2022/03/21 08:28:14;;;;;;;10.95;6.85;;;26.90;76.30;;;;;;5055716;28;20025;-70
2022/03/21 08:30:41;;;;;;;9.25;6.47;;;27.30;73.00;;;;;;5055443;28;20485;-71
2022/03/21 08:33:08;;;;;;;10.45;6.35;;;27.20;72.70;;;;;;5055299;28;20017;-72
2022/03/21 08:35:39;;;;;;;11.43;7.07;;;27.10;71.30;;;;;;5054884;28;20394;-71
2022/03/21 08:38:06;;;;;;;11.13;7.20;;;27.60;69.90;;;;;;5055022;28;20087;-71
2022/03/21 08:40:32;;;;;;;10.43;6.72;;;28.20;68.50;;;;;;5055216;28;20478;-72
2022/03/21 08:42:58;;;;;;;10.00;7.20;;;28.60;67.00;;;;;;5055151;28;20112;-69
2022/03/21 08:45:24;;;;;;;10.68;6.65;;;29.10;65.20;;;;;;5054791;28;20458;-71
2022/03/21 08:47:53;;;;;;;10.90;7.18;;;29.20;64.50;;;;;;5054907;28;20028;-71
2022/03/21 08:50:20;;;;;;;9.32;6.63;;;29.80;62.70;;;;;;5054967;28;20478;-71
2022/03/21 08:52:46;;;;;;;8.65;6.78;;;30.20;61.00;;;;;;5054873;28;20029;-77
2022/03/21 08:55:12;;;;;;;8.35;6.03;;;30.20;60.30;;;;;;5054293;28;20469;-70
2022/03/21 08:57:38;;;;;;;9.38;5.88;;;30.20;60.10;;;;;;5054836;28;20110;-77
2022/03/21 09:00:07;;;;;;;10.07;6.30;;;31.00;58.90;;;;;;5054258;28;20036;-77
2022/03/21 09:02:33;;;;;;;9.77;6.38;;;31.10;58.90;;;;;;5054280;28;20074;-71
2022/03/21 09:04:59;;;;;;;9.82;6.10;;;31.10;57.40;;;;;;5053502;28;20056;-71
2022/03/21 09:07:25;;;;;;;7.95;5.85;;;31.20;57.50;;;;;;5054746;28;20555;-71
2022/03/21 09:09:51;;;;;;;13.20;5.80;;;31.50;56.70;;;;;;5053972;28;20051;-73
2022/03/21 09:12:16;;;;;;;15.68;6.13;;;31.70;55.60;;;;;;5053757;28;20497;-79
2022/03/21 09:14:42;;;;;;;8.48;5.97;;;32.00;54.90;;;;;;5054655;28;20025;-77
2022/03/21 09:17:08;;;;;;;8.35;5.75;;;31.90;54.70;;;;;;5053933;28;20118;-80
2022/03/21 09:19:34;;;;;;;9.07;5.22;;;31.40;54.30;;;;;;5054949;28;20021;-70
2022/03/21 09:22:00;;;;;;;8.30;5.15;;;31.80;54.60;;;;;;5053132;28;20029;-72
2022/03/21 09:24:26;;;;;;;7.72;5.18;;;32.50;52.90;;;;;;5053021;28;20037;-72
2022/03/21 09:26:52;;;;;;;7.32;5.22;;;32.40;53.90;;;;;;5053354;28;20029;-75
2022/03/21 09:29:18;;;;;;;11.07;5.50;;;32.90;52.60;;;;;;5054357;28;20031;-72
2022/03/21 09:31:46;;;;;;;7.15;4.80;;;33.00;52.60;;;;;;5054265;28;20108;-73
2022/03/21 09:34:13;;;;;;;7.68;4.50;;;32.60;52.10;;;;;;5054437;28;20020;-72
2022/03/21 09:36:40;;;;;;;6.55;4.40;;;33.00;52.00;;;;;;5053622;28;20029;-74
2022/03/21 09:39:07;;;;;;;7.57;3.97;;;34.00;50.90;;;;;;5054595;28;20029;-73
2022/03/21 09:41:33;;;;;;;6.75;4.00;;;33.90;50.30;;;;;;5053582;28;20028;-74
2022/03/21 09:44:01;;;;;;;7.03;4.43;;;33.40;50.50;;;;;;5053981;28;20029;-75
2022/03/21 09:46:27;;;;;;;5.47;3.70;;;33.10;50.70;;;;;;5053604;28;20036;-76
2022/03/21 09:48:55;;;;;;;6.30;4.18;;;33.50;50.20;;;;;;5053790;28;20511;-73
2022/03/21 09:51:26;;;;;;;7.30;4.03;;;33.30;50.30;;;;;;5054217;28;20032;-71
2022/03/21 09:53:52;;;;;;;6.22;3.47;;;33.80;49.90;;;;;;5053566;28;20794;-72
2022/03/21 09:56:18;;;;;;;4.88;3.20;;;33.80;50.00;;;;;;5054448;28;20040;-70
2022/03/21 09:58:45;;;;;;;6.55;3.15;;;34.60;49.00;;;;;;5053725;28;20159;-71
2022/03/21 10:01:12;;;;;;;5.05;2.80;;;35.20;47.90;;;;;;5054133;28;20024;-77
2022/03/21 10:03:42;;;;;;;3.33;2.60;;;35.40;47.20;;;;;;5054142;28;20025;-75
2022/03/21 10:06:26;;;;;;;3.88;2.63;;;36.00;46.80;;;;;;5054147;28;20420;-76
2022/03/21 10:09:14;;;;;;;6.47;2.70;;;35.50;46.80;;;;;;5054901;28;20025;-76
2022/03/21 10:11:51;;;;;;;3.70;2.70;;;34.60;47.30;;;;;;5053391;28;20025;-72
2022/03/21 10:14:29;;;;;;;5.18;2.30;;;34.70;46.60;;;;;;5053771;28;20404;-72
2022/03/21 10:17:01;;;;;;;3.83;2.40;;;35.80;46.00;;;;;;5054074;28;20031;-72
2022/03/21 10:19:39;;;;;;;4.60;2.25;;;36.20;45.70;;;;;;5049943;28;20502;-74
2022/03/21 10:22:10;;;;;;;3.00;2.53;;;36.30;44.80;;;;;;5048134;28;20029;-73
2022/03/21 10:24:44;;;;;;;4.53;2.35;;;35.70;45.30;;;;;;5053243;28;20109;-73
2022/03/21 10:27:34;;;;;;;3.03;2.10;;;34.80;46.20;;;;;;5034435;28;20405;-74
2022/03/21 10:30:08;;;;;;;3.17;2.13;;;35.60;45.10;;;;;;5053650;28;20025;-71
2022/03/21 10:32:56;;;;;;;4.28;2.67;;;36.70;44.40;;;;;;5053561;28;20021;-75
2022/03/21 10:35:28;;;;;;;4.22;2.30;;;37.00;44.20;;;;;;5035056;28;20025;-68
2022/03/21 10:38:01;;;;;;;5.03;2.72;;;35.90;44.40;;;;;;5053350;28;20025;-73
2022/03/21 10:40:44;;;;;;;4.25;2.20;;;35.80;44.40;;;;;;5053699;28;20100;-69
2022/03/21 10:43:15;;;;;;;5.03;2.30;;;35.30;44.40;;;;;;5033144;28;20402;-67
2022/03/21 10:45:49;;;;;;;5.97;2.38;;;35.10;44.50;;;;;;5033444;28;20413;-71
2022/03/21 10:48:31;;;;;;;4.55;2.63;;;35.10;44.30;;;;;;5033093;28;20108;-70
2022/03/21 10:51:02;;;;;;;3.53;2.30;;;35.40;43.90;;;;;;5034037;28;20010;-68
2022/03/21 10:53:41;;;;;;;3.17;2.30;;;35.00;44.10;;;;;;5033762;28;20026;-70
2022/03/21 10:56:11;;;;;;;4.30;2.95;;;35.30;44.00;;;;;;5038179;28;20021;-71
2022/03/21 10:58:38;;;;;;;3.80;2.28;;;35.00;44.30;;;;;;5052208;28;20477;-76
2022/03/21 11:01:24;;;;;;;4.80;2.33;;;34.80;44.20;;;;;;5052170;28;20021;-71
2022/03/21 11:03:52;;;;;;;4.53;2.42;;;33.70;45.00;;;;;;5052107;28;20036;-71
2022/03/21 11:06:19;;;;;;;3.05;2.40;;;34.10;45.20;;;;;;5052117;28;20567;-69
2022/03/21 11:08:47;;;;;;;4.85;2.50;;;34.80;44.70;;;;;;5051089;28;20052;-69
2022/03/21 11:11:13;;;;;;;2.65;2.00;;;34.40;44.70;;;;;;5052993;28;20408;-68
2022/03/21 11:13:40;;;;;;;19.80;3.28;;;34.30;44.70;;;;;;5052858;28;20104;-67
2022/03/21 11:16:07;;;;;;;25.25;3.97;;;34.10;44.50;;;;;;5052892;28;20100;-69
2022/03/21 11:18:33;;;;;;;9.65;2.42;;;34.40;44.80;;;;;;5052001;28;20032;-75
2022/03/21 11:21:00;;;;;;;6.15;2.65;;;34.60;44.00;;;;;;5053045;28;20017;-71
2022/03/21 11:23:26;;;;;;;6.45;2.42;;;34.40;44.00;;;;;;5052732;28;20111;-69
2022/03/21 11:25:55;;;;;;;4.80;2.67;;;34.50;44.20;;;;;;5052815;28;20032;-70
2022/03/21 11:28:46;;;;;;;2.63;2.10;;;35.10;44.60;;;;;;5052012;28;20037;-73
2022/03/21 11:31:51;;;;;;;9.48;2.58;;;34.90;44.40;;;;;;5051071;28;20021;-74
2022/03/21 11:34:35;;;;;;;5.20;2.30;;;34.20;44.30;;;;;;5051533;28;20124;-72
2022/03/21 11:37:01;;;;;;;3.38;2.05;;;33.10;45.60;;;;;;5052099;28;20019;-72
2022/03/21 11:39:27;;;;;;;10.95;2.97;;;33.10;45.20;;;;;;5054296;28;20107;-72
2022/03/21 11:42:09;;;;;;;3.88;2.22;;;32.40;71.60;;;;;;5038327;28;20409;-71
2022/03/21 11:44:36;;;;;;;3.47;2.40;;;30.40;53.10;;;;;;5056388;28;20037;-71
2022/03/21 11:47:23;;;;;;;6.97;2.38;;;26.30;72.00;;;;;;5056527;28;20477;-70
2022/03/21 11:49:49;;;;;;;5.38;2.38;;;23.00;58.60;;;;;;5056456;28;20110;-72
2022/03/21 11:52:15;;;;;;;3.00;1.98;;;21.90;62.00;;;;;;5056718;28;20185;-71
2022/03/21 11:54:42;;;;;;;4.63;2.38;;;21.40;62.60;;;;;;5056017;28;20013;-71
2022/03/21 11:57:25;;;;;;;5.35;2.40;;;21.30;64.70;;;;;;5056358;28;20088;-72
2022/03/21 11:59:53;;;;;;;4.32;2.28;;;21.00;64.80;;;;;;5056578;28;20051;-71
2022/03/21 12:02:20;;;;;;;6.32;2.60;;;20.40;66.50;;;;;;5055988;28;20031;-71
2022/03/21 12:04:57;;;;;;;5.50;2.55;;;20.70;67.10;;;;;;5055903;28;20113;-71
2022/03/21 12:07:26;;;;;;;6.07;2.63;;;20.70;66.40;;;;;;5055680;28;20044;-71
2022/03/21 12:09:53;;;;;;;3.85;2.20;;;20.30;67.70;;;;;;5055626;28;20060;-71
2022/03/21 12:12:20;;;;;;;7.40;2.60;;;20.30;67.90;;;;;;5055732;28;20029;-70
2022/03/21 12:15:00;;;;;;;4.38;2.40;;;20.20;68.90;;;;;;5055935;28;20028;-71
2022/03/21 12:17:26;;;;;;;4.65;2.45;;;20.00;69.40;;;;;;5055952;28;20021;-71
2022/03/21 12:19:54;;;;;;;4.93;2.70;;;19.80;70.40;;;;;;5055661;28;20121;-72
2022/03/21 12:22:35;;;;;;;5.63;2.53;;;19.50;72.50;;;;;;5055862;28;20025;-72
2022/03/21 12:25:05;;;;;;;5.65;2.58;;;19.50;73.20;;;;;;5055827;28;20055;-70
2022/03/21 12:27:53;;;;;;;6.22;2.42;;;19.80;71.30;;;;;;5055807;28;20036;-70
2022/03/21 12:30:26;;;;;;;3.05;2.10;;;20.00;71.10;;;;;;5055678;28;20021;-71
2022/03/21 12:33:10;;;;;;;3.78;2.15;;;20.00;71.70;;;;;;5055994;28;20029;-72
2022/03/21 12:35:51;;;;;;;3.58;2.00;;;19.70;71.40;;;;;;5055838;28;20107;-71
2022/03/21 12:38:25;;;;;;;4.80;2.20;;;19.70;71.40;;;;;;5055544;28;20525;-70
2022/03/21 12:41:00;;;;;;;4.65;2.42;;;19.60;73.00;;;;;;5055210;28;20021;-71
2022/03/21 12:43:41;;;;;;;5.30;2.20;;;19.80;72.60;;;;;;5055467;28;20036;-71
2022/03/21 12:46:06;;;;;;;6.13;2.42;;;19.80;71.10;;;;;;5055412;28;20033;-71
2022/03/21 12:48:34;;;;;;;4.03;2.15;;;19.80;72.30;;;;;;5055552;28;20033;-71
2022/03/21 12:51:01;;;;;;;3.90;2.15;;;19.90;72.80;;;;;;5054325;28;20017;-71
2022/03/21 12:53:47;;;;;;;7.53;2.60;;;20.00;73.00;;;;;;5055261;28;20086;-71
2022/03/21 12:56:15;;;;;;;5.47;2.30;;;20.10;73.00;;;;;;5055008;28;20025;-71
2022/03/21 12:58:45;;;;;;;4.97;2.28;;;20.30;74.00;;;;;;5054880;28;20025;-71
2022/03/21 13:01:16;;;;;;;5.25;2.33;;;20.30;74.20;;;;;;5055154;28;20104;-71
2022/03/21 13:03:42;;;;;;;4.47;2.35;;;20.50;71.10;;;;;;5055075;28;20025;-71
2022/03/21 13:11:36;;;;;;;4.47;2.47;;;20.10;72.40;;;;;;5054029;28;20029;-74